Continental Highway — H9LY — position and weather

sailwx.info

Track history (hours):
 
Tides and Currents Weather Stations Pressure Air Temp Water Temp Dewpoint Dewpoint Depression Visibility Wind Speed Wind Dir Waves Ship Positions

Continental Highway

Last reported at 2017-Jan-16 18:33 UTC. Time now 2017-Jan-19 23:27 UTC.
Position N 35°15' W 127°04'.

Length 199.9 m; beam 32.2 m.

Type: Cargo ship. MMSI: 351223000.

Date/timePositionNaut miles runAvg speedWind from/ knotsBaromVisibWave heightAir tempDewpointWater temp
2017-Jan-16 18:33N 35°15' W 127°04'1616.2
2017-Jan-16 17:33N 35°25' W 126°48'2216.0
2017-Jan-16 16:11N 35°38' W 126°26'10916.5
2017-Jan-16 09:33N 36°42' W 124°37'1616.5
2017-Jan-16 08:33N 36°52' W 124°21'2116.7
2017-Jan-16 07:19N 37°04' W 123°60'1416.7
2017-Jan-16 06:31N 37°12' W 123°46'1716.9
2017-Jan-16 05:31N 37°23' W 123°30'1616.9
2017-Jan-16 04:33N 37°31' W 123°12'1717.0
2017-Jan-16 03:33N 37°39' W 122°54'1414.0
2017-Jan-16 02:34N 37°46' W 122°38'1514.6
2017-Jan-16 01:33N 37°58' W 122°27'1413.6
2017-Jan-16 00:32N 38°02' W 122°10'1 1.4
2017-Jan-15 23:29N 38°02' W 122°08'0 0.0
2017-Jan-15 09:20N 38°02' W 122°08'1 1.8
2017-Jan-15 08:33N 38°02' W 122°10'1010.1
2017-Jan-15 07:33N 38°02' W 122°23'9 8.7
2017-Jan-15 06:34N 37°53' W 122°26'7 7.1
2017-Jan-15 05:34N 37°47' W 122°21'1 1.0
2017-Jan-15 04:32N 37°46' W 122°21'0 0.1
2017-Jan-15 03:32N 37°46' W 122°21'0 0.0
2017-Jan-15 02:32N 37°46' W 122°21'0 0.0
2017-Jan-15 01:32N 37°46' W 122°21'0 0.0
2017-Jan-15 00:32N 37°46' W 122°21'0 0.1
2017-Jan-14 23:32N 37°46' W 122°21'0 0.0
2017-Jan-14 22:32N 37°46' W 122°21'0 0.2
2017-Jan-14 21:32N 37°46' W 122°21'0 0.0
2017-Jan-14 20:32N 37°46' W 122°21'0 0.0
2017-Jan-14 19:32N 37°46' W 122°21'0 0.0
2017-Jan-14 18:32N 37°46' W 122°21'0 0.0
2017-Jan-14 17:32N 37°46' W 122°21'0 0.0
2017-Jan-14 16:32N 37°46' W 122°21'0 0.1
2017-Jan-14 15:32N 37°46' W 122°21'0 0.1
2017-Jan-14 14:32N 37°46' W 122°21'0 0.0
2017-Jan-14 13:32N 37°46' W 122°21'0 0.0
2017-Jan-14 12:32N 37°46' W 122°21'0 0.0
2017-Jan-14 11:32N 37°46' W 122°21'0 0.1
2017-Jan-14 10:32N 37°46' W 122°21'0 0.1
2017-Jan-14 09:32N 37°46' W 122°21'0 0.0
2017-Jan-14 08:32N 37°46' W 122°21'0 0.0
2017-Jan-14 07:32N 37°46' W 122°21'0 0.0
2017-Jan-14 06:32N 37°46' W 122°21'0 0.0
2017-Jan-14 05:32N 37°46' W 122°21'0 0.0
2017-Jan-14 04:33N 37°46' W 122°21'8 7.8
2017-Jan-14 03:33N 37°48' W 122°30'4912.2
2017-Jan-13 23:33N 36°59' W 122°34'1615.9
2017-Jan-13 22:32N 36°44' W 122°29'1515.7
2017-Jan-13 21:33N 36°30' W 122°20'1616.0
2017-Jan-13 20:33N 36°16' W 122°11'1616.1
2017-Jan-13 19:33N 36°02' W 122°02'1616.3
2017-Jan-13 18:33N 35°47' W 121°52'1616.0
2017-Jan-13 17:32N 35°34' W 121°41'20613.6
2017-Jan-13 02:22N 33°40' W 118°12'4 0.3
2017-Jan-12 11:22N 33°36' W 118°14'7 6.8
2017-Jan-12 10:23N 33°36' W 118°22'38 6.6
2017-Jan-12 04:32N 33°37' W 119°08'  
Track history (hours):
 
Tides and Currents Weather Stations Pressure Air Temp Water Temp Dewpoint Dewpoint Depression Visibility Wind Speed Wind Dir Waves Ship Positions

Continental Highway

Last reported at 2017-Jan-16 18:33 UTC. Time now 2017-Jan-19 23:27 UTC.
Position N 35°15' W 127°04'.

Length 199.9 m; beam 32.2 m.

Type: Cargo ship. MMSI: 351223000.

Date/timePositionNaut miles runAvg speedWind from/ knotsBaromVisibWave heightAir tempDewpointWater temp
2017-Jan-16 18:33N 35°15' W 127°04'1616.2
2017-Jan-16 17:33N 35°25' W 126°48'2216.0
2017-Jan-16 16:11N 35°38' W 126°26'10916.5
2017-Jan-16 09:33N 36°42' W 124°37'1616.5
2017-Jan-16 08:33N 36°52' W 124°21'2116.7
2017-Jan-16 07:19N 37°04' W 123°60'1416.7
2017-Jan-16 06:31N 37°12' W 123°46'1716.9
2017-Jan-16 05:31N 37°23' W 123°30'1616.9
2017-Jan-16 04:33N 37°31' W 123°12'1717.0
2017-Jan-16 03:33N 37°39' W 122°54'1414.0
2017-Jan-16 02:34N 37°46' W 122°38'1514.6
2017-Jan-16 01:33N 37°58' W 122°27'1413.6
2017-Jan-16 00:32N 38°02' W 122°10'1 1.4
2017-Jan-15 23:29N 38°02' W 122°08'0 0.0
2017-Jan-15 09:20N 38°02' W 122°08'1 1.8
2017-Jan-15 08:33N 38°02' W 122°10'1010.1
2017-Jan-15 07:33N 38°02' W 122°23'9 8.7
2017-Jan-15 06:34N 37°53' W 122°26'7 7.1
2017-Jan-15 05:34N 37°47' W 122°21'1 1.0
2017-Jan-15 04:32N 37°46' W 122°21'0 0.1
2017-Jan-15 03:32N 37°46' W 122°21'0 0.0
2017-Jan-15 02:32N 37°46' W 122°21'0 0.0
2017-Jan-15 01:32N 37°46' W 122°21'0 0.0
2017-Jan-15 00:32N 37°46' W 122°21'0 0.1
2017-Jan-14 23:32N 37°46' W 122°21'0 0.0
2017-Jan-14 22:32N 37°46' W 122°21'0 0.2
2017-Jan-14 21:32N 37°46' W 122°21'0 0.0
2017-Jan-14 20:32N 37°46' W 122°21'0 0.0
2017-Jan-14 19:32N 37°46' W 122°21'0 0.0
2017-Jan-14 18:32N 37°46' W 122°21'0 0.0
2017-Jan-14 17:32N 37°46' W 122°21'0 0.0
2017-Jan-14 16:32N 37°46' W 122°21'0 0.1
2017-Jan-14 15:32N 37°46' W 122°21'0 0.1
2017-Jan-14 14:32N 37°46' W 122°21'0 0.0
2017-Jan-14 13:32N 37°46' W 122°21'0 0.0
2017-Jan-14 12:32N 37°46' W 122°21'0 0.0
2017-Jan-14 11:32N 37°46' W 122°21'0 0.1
2017-Jan-14 10:32N 37°46' W 122°21'0 0.1
2017-Jan-14 09:32N 37°46' W 122°21'0 0.0
2017-Jan-14 08:32N 37°46' W 122°21'0 0.0
2017-Jan-14 07:32N 37°46' W 122°21'0 0.0
2017-Jan-14 06:32N 37°46' W 122°21'0 0.0
2017-Jan-14 05:32N 37°46' W 122°21'0 0.0
2017-Jan-14 04:33N 37°46' W 122°21'8 7.8
2017-Jan-14 03:33N 37°48' W 122°30'4912.2
2017-Jan-13 23:33N 36°59' W 122°34'1615.9
2017-Jan-13 22:32N 36°44' W 122°29'1515.7
2017-Jan-13 21:33N 36°30' W 122°20'1616.0
2017-Jan-13 20:33N 36°16' W 122°11'1616.1
2017-Jan-13 19:33N 36°02' W 122°02'1616.3
2017-Jan-13 18:33N 35°47' W 121°52'1616.0
2017-Jan-13 17:32N 35°34' W 121°41'20613.6
2017-Jan-13 02:22N 33°40' W 118°12'4 0.3
2017-Jan-12 11:22N 33°36' W 118°14'7 6.8
2017-Jan-12 10:23N 33°36' W 118°22'38 6.6
2017-Jan-12 04:32N 33°37' W 119°08'  

Dump ship's entire track history